Time;durP1;ratioP1;P1;durP2;ratioP2;P2;SDS_P1;SDS_P2;PMS_P1;PMS_P2;Temp;Humidity;BMP_temperature;BMP_pressure;BME280_temperature;BME280_humidity;BME280_pressure;Samples;Min_cycle;Max_cycle;Signal;HPM_P1;HPM_P2
2021/12/22 00:01:36;;;;;;;8.20;4.00;;;-8.50;99.90;;;;;;5036132;28;20026;-65
2021/12/22 00:04:03;;;;;;;11.05;4.20;;;-8.50;99.90;;;;;;5036276;28;20079;-65
2021/12/22 00:06:32;;;;;;;9.80;3.70;;;-8.70;99.90;;;;;;5034760;28;20079;-65
2021/12/22 00:08:58;;;;;;;12.95;4.32;;;-8.70;99.90;;;;;;5035836;28;20013;-66
2021/12/22 00:11:24;;;;;;;13.68;4.50;;;-8.70;99.90;;;;;;5036087;28;20097;-66
2021/12/22 00:13:50;;;;;;;8.25;3.95;;;-8.70;99.90;;;;;;5035792;28;20041;-65
2021/12/22 00:16:15;;;;;;;10.23;4.47;;;-8.70;99.90;;;;;;5035029;28;20481;-65
2021/12/22 00:18:41;;;;;;;9.30;4.50;;;-8.60;99.90;;;;;;5035823;28;20100;-65
2021/12/22 00:21:07;;;;;;;10.77;4.82;;;-8.60;99.90;;;;;;5035658;28;20037;-65
2021/12/22 00:23:33;;;;;;;15.60;5.85;;;-8.60;99.90;;;;;;5034307;28;20072;-66
2021/12/22 00:25:59;;;;;;;11.13;4.72;;;-8.70;99.90;;;;;;5035591;28;20032;-65
2021/12/22 00:28:25;;;;;;;14.82;5.22;;;-8.70;99.90;;;;;;5035838;28;20032;-65
2021/12/22 00:30:52;;;;;;;12.85;5.30;;;-8.70;99.90;;;;;;5035585;28;20111;-66
2021/12/22 00:33:19;;;;;;;14.55;4.47;;;-8.70;99.90;;;;;;5035514;28;20164;-66
2021/12/22 00:35:45;;;;;;;8.65;4.18;;;-8.70;99.90;;;;;;5035274;28;20031;-66
2021/12/22 00:38:19;;;;;;;10.48;4.70;;;-8.70;99.90;;;;;;5035399;28;20104;-66
2021/12/22 00:40:47;;;;;;;13.13;4.63;;;-8.70;99.90;;;;;;5035179;28;20046;-66
2021/12/22 00:43:14;;;;;;;8.18;4.82;;;-8.70;99.90;;;;;;5035113;28;20022;-66
2021/12/22 00:45:40;;;;;;;10.02;4.45;;;-8.70;99.90;;;;;;5035478;28;20079;-66
2021/12/22 00:48:09;;;;;;;7.82;4.13;;;-8.70;99.90;;;;;;5035148;28;20473;-65
2021/12/22 00:50:35;;;;;;;8.90;3.83;;;-8.70;99.90;;;;;;5035152;28;20029;-65
2021/12/22 00:53:01;;;;;;;8.45;4.07;;;-8.70;99.90;;;;;;5034863;28;20051;-65
2021/12/22 00:55:27;;;;;;;8.43;4.22;;;-8.70;99.90;;;;;;5035507;28;20076;-66
2021/12/22 00:57:53;;;;;;;9.43;4.32;;;-8.70;99.90;;;;;;5034977;28;20493;-65
2021/12/22 01:00:23;;;;;;;11.85;3.92;;;-8.60;99.90;;;;;;5035197;28;20492;-65
2021/12/22 01:02:48;;;;;;;9.00;3.83;;;-8.70;99.90;;;;;;5034826;28;20049;-66
2021/12/22 01:05:16;;;;;;;7.57;4.65;;;-8.60;99.90;;;;;;5034861;28;20064;-65
2021/12/22 01:07:44;;;;;;;16.48;5.30;;;-8.70;99.90;;;;;;5034758;28;20029;-66
2021/12/22 01:10:12;;;;;;;10.32;4.47;;;-8.80;99.90;;;;;;5035273;28;20032;-66
2021/12/22 01:12:39;;;;;;;13.18;5.20;;;-8.80;99.90;;;;;;5033362;28;20063;-66
2021/12/22 01:15:07;;;;;;;14.00;4.90;;;-8.80;99.90;;;;;;5035163;28;20026;-65
2021/12/22 01:17:41;;;;;;;13.40;5.70;;;-8.90;99.90;;;;;;5034559;28;20021;-66
2021/12/22 01:20:16;;;;;;;13.60;5.30;;;-8.90;99.90;;;;;;5034664;28;20017;-65
2021/12/22 01:25:11;;;;;;;12.82;4.82;;;-8.80;99.90;;;;;;5035016;28;20118;-66
2021/12/22 01:27:41;;;;;;;13.75;5.15;;;-8.90;99.90;;;;;;5033495;28;20021;-66
2021/12/22 01:30:11;;;;;;;14.40;5.00;;;-8.80;99.90;;;;;;5034310;28;20022;-65
2021/12/22 01:32:38;;;;;;;8.93;4.38;;;-8.80;99.90;;;;;;5033012;28;20028;-65
2021/12/22 01:35:07;;;;;;;11.57;4.32;;;-8.90;99.90;;;;;;5034577;28;20469;-66
2021/12/22 01:37:33;;;;;;;7.75;4.32;;;-8.90;99.90;;;;;;5034331;28;20084;-65
2021/12/22 01:40:01;;;;;;;9.35;4.13;;;-8.90;99.90;;;;;;5034395;28;20025;-66
2021/12/22 01:42:27;;;;;;;11.13;5.00;;;-8.90;99.90;;;;;;5034495;28;20017;-65
2021/12/22 01:50:37;;;;;;;8.48;4.28;;;-8.90;99.90;;;;;;5034273;28;20044;-66
2021/12/22 01:53:22;;;;;;;9.25;3.90;;;-8.90;99.90;;;;;;5032569;28;20500;-66
2021/12/22 01:56:01;;;;;;;10.50;3.80;;;-8.90;99.90;;;;;;5023224;28;20045;-66
2021/12/22 01:58:42;;;;;;;9.45;4.22;;;-9.00;99.90;;;;;;5034475;28;20024;-66
2021/12/22 02:01:10;;;;;;;7.93;4.63;;;-9.00;99.90;;;;;;5034424;28;20028;-65
2021/12/22 02:03:38;;;;;;;12.75;5.15;;;-9.10;99.90;;;;;;5033707;28;20025;-66
2021/12/22 02:06:05;;;;;;;10.00;4.30;;;-9.20;99.90;;;;;;5033747;28;20032;-66
2021/12/22 02:08:32;;;;;;;9.45;4.10;;;-9.20;99.90;;;;;;5032457;28;20104;-66
2021/12/22 02:10:58;;;;;;;10.05;4.35;;;-9.20;99.90;;;;;;5033917;28;20029;-66
2021/12/22 02:13:29;;;;;;;8.40;4.13;;;-9.20;99.90;;;;;;5033589;28;20549;-65
2021/12/22 02:15:55;;;;;;;11.85;5.47;;;-9.20;99.90;;;;;;5033794;28;20029;-65
2021/12/22 02:18:22;;;;;;;9.23;4.13;;;-9.20;99.90;;;;;;5032360;28;20021;-65
2021/12/22 02:20:49;;;;;;;9.00;3.97;;;-9.20;99.90;;;;;;5034041;28;20041;-66
2021/12/22 02:23:16;;;;;;;13.05;5.22;;;-9.20;99.90;;;;;;5033423;28;20080;-65
2021/12/22 02:25:49;;;;;;;17.85;6.90;;;-9.20;99.90;;;;;;5033559;28;20056;-66
2021/12/22 02:28:20;;;;;;;13.68;5.03;;;-9.20;99.90;;;;;;5033800;28;20026;-66
2021/12/22 02:30:46;;;;;;;10.60;5.50;;;-9.30;99.90;;;;;;5033470;28;20049;-65
2021/12/22 02:38:39;;;;;;;8.80;4.10;;;-9.30;99.90;;;;;;5034403;28;20378;-66
2021/12/22 02:41:08;;;;;;;11.10;4.47;;;-9.30;99.90;;;;;;5040374;28;20017;-65
2021/12/22 02:43:34;;;;;;;11.40;3.85;;;-9.30;99.90;;;;;;5038533;28;20029;-66
2021/12/22 02:46:01;;;;;;;7.60;3.95;;;-9.30;99.90;;;;;;5038626;28;20025;-66
2021/12/22 02:48:31;;;;;;;11.48;4.82;;;-9.30;99.90;;;;;;5040101;28;20358;-66
2021/12/22 02:51:00;;;;;;;16.90;4.43;;;-9.30;99.90;;;;;;5040522;28;20033;-65
2021/12/22 02:53:37;;;;;;;14.35;4.20;;;-9.30;99.90;;;;;;5039775;28;20156;-67
2021/12/22 02:56:14;;;;;;;12.65;5.15;;;-9.30;99.90;;;;;;5040059;28;20124;-66
2021/12/22 02:58:59;;;;;;;10.32;4.68;;;-9.30;99.90;;;;;;5038551;28;20025;-66
2021/12/22 03:04:32;;;;;;;16.63;7.18;;;-9.30;99.90;;;;;;4998215;28;20038;-65
2021/12/22 03:07:02;;;;;;;18.40;6.97;;;-9.30;99.90;;;;;;5032429;28;20048;-66
2021/12/22 03:09:29;;;;;;;12.25;5.03;;;-9.40;99.90;;;;;;5040300;28;20036;-66
2021/12/22 03:11:58;;;;;;;15.70;4.68;;;-9.40;99.90;;;;;;5039739;28;20119;-66
2021/12/22 03:14:24;;;;;;;14.57;4.53;;;-9.40;99.90;;;;;;5038312;28;20025;-65
2021/12/22 03:16:51;;;;;;;10.70;4.18;;;-9.40;99.90;;;;;;5039936;28;20022;-65
2021/12/22 03:19:21;;;;;;;10.13;3.80;;;-9.40;99.90;;;;;;5039631;28;20021;-65
2021/12/22 03:21:48;;;;;;;10.73;4.20;;;-9.40;99.90;;;;;;5039897;28;20030;-65
2021/12/22 03:24:17;;;;;;;11.30;5.03;;;-9.50;99.90;;;;;;5039764;28;20354;-66
2021/12/22 03:26:44;;;;;;;12.88;5.10;;;-9.40;99.90;;;;;;5039553;28;20048;-65
2021/12/22 03:29:12;;;;;;;12.02;5.18;;;-9.50;99.90;;;;;;5038306;28;20451;-65
2021/12/22 03:31:39;;;;;;;10.43;4.95;;;-9.50;99.90;;;;;;5039608;28;20052;-66
2021/12/22 03:34:06;;;;;;;11.73;5.18;;;-9.50;99.90;;;;;;5039430;28;20026;-66
2021/12/22 03:36:33;;;;;;;9.77;5.50;;;-9.50;99.90;;;;;;5038243;28;20076;-65
2021/12/22 03:38:59;;;;;;;9.95;4.82;;;-9.50;99.90;;;;;;5039474;28;20021;-66
2021/12/22 03:41:25;;;;;;;10.82;4.53;;;-9.50;99.90;;;;;;5039418;28;20056;-65
2021/12/22 03:43:50;;;;;;;10.35;4.35;;;-9.50;99.90;;;;;;5039716;28;20026;-65
2021/12/22 03:46:16;;;;;;;11.00;4.40;;;-9.50;99.90;;;;;;5039885;28;20128;-65
2021/12/22 03:48:42;;;;;;;11.60;4.57;;;-9.50;99.90;;;;;;5039318;28;20032;-65
2021/12/22 03:51:08;;;;;;;10.35;4.85;;;-9.50;99.90;;;;;;5036861;28;20075;-65
2021/12/22 03:53:35;;;;;;;11.40;5.45;;;-9.50;99.90;;;;;;5035998;28;20033;-65
2021/12/22 03:56:01;;;;;;;11.88;5.38;;;-9.50;99.90;;;;;;5036076;28;20033;-66
2021/12/22 03:58:27;;;;;;;11.13;4.80;;;-9.50;99.90;;;;;;5036056;28;20018;-66
2021/12/22 04:00:55;;;;;;;12.60;5.50;;;-9.50;99.90;;;;;;5036396;28;20433;-66
2021/12/22 04:03:24;;;;;;;14.57;5.10;;;-9.50;99.90;;;;;;5036074;28;20029;-66
2021/12/22 04:05:50;;;;;;;13.00;4.47;;;-9.50;99.90;;;;;;5036520;28;20029;-65
2021/12/22 04:08:18;;;;;;;15.68;4.97;;;-9.60;99.90;;;;;;5034623;28;20374;-65
2021/12/22 04:10:48;;;;;;;12.13;4.78;;;-9.60;99.90;;;;;;5035890;28;20079;-66
2021/12/22 04:13:14;;;;;;;13.98;4.43;;;-9.60;99.90;;;;;;5035748;28;20028;-65
2021/12/22 04:15:41;;;;;;;13.48;4.40;;;-9.60;99.90;;;;;;5035685;28;20388;-66
2021/12/22 04:18:07;;;;;;;11.90;4.60;;;-9.70;99.90;;;;;;5035733;28;20097;-66
2021/12/22 04:20:33;;;;;;;14.07;4.50;;;-9.70;99.90;;;;;;5036231;28;20045;-66
2021/12/22 04:23:00;;;;;;;11.90;4.63;;;-9.70;99.90;;;;;;5036192;28;20072;-66
2021/12/22 04:25:27;;;;;;;13.35;5.90;;;-9.70;99.90;;;;;;5034374;28;20382;-65
2021/12/22 04:28:04;;;;;;;8.95;4.07;;;-9.70;99.90;;;;;;5034361;28;20034;-66
2021/12/22 04:30:36;;;;;;;10.05;4.30;;;-9.70;99.90;;;;;;5035550;28;20075;-66
2021/12/22 04:33:02;;;;;;;9.43;4.55;;;-9.70;99.90;;;;;;5035614;28;20022;-66
2021/12/22 04:35:28;;;;;;;7.45;3.65;;;-9.80;99.90;;;;;;5035769;28;20025;-65
2021/12/22 04:37:54;;;;;;;9.98;4.50;;;-9.80;99.90;;;;;;5034166;28;20120;-65
2021/12/22 04:40:20;;;;;;;6.95;3.75;;;-9.80;99.90;;;;;;5035323;28;20096;-65
2021/12/22 04:42:46;;;;;;;10.07;4.50;;;-9.80;99.90;;;;;;5035453;28;20532;-66
2021/12/22 04:45:13;;;;;;;10.10;4.43;;;-9.80;99.90;;;;;;5035513;28;20025;-66
2021/12/22 04:47:39;;;;;;;11.80;5.07;;;-9.80;99.90;;;;;;5034649;28;20140;-66
2021/12/22 04:50:14;;;;;;;13.35;4.97;;;-9.80;99.90;;;;;;5035214;28;20063;-65
2021/12/22 04:52:48;;;;;;;12.98;4.93;;;-9.80;99.90;;;;;;5035592;28;20029;-66
2021/12/22 04:55:14;;;;;;;13.35;4.82;;;-9.80;99.90;;;;;;5035432;28;20021;-66
2021/12/22 04:57:41;;;;;;;13.48;5.43;;;-9.90;99.90;;;;;;5033913;28;20026;-66
2021/12/22 05:00:10;;;;;;;13.10;4.50;;;-9.90;99.90;;;;;;5035073;28;20033;-66
2021/12/22 05:02:36;;;;;;;10.70;4.70;;;-10.00;99.90;;;;;;5034759;28;20018;-66
2021/12/22 05:05:03;;;;;;;14.73;4.68;;;-10.10;99.90;;;;;;5034079;28;20362;-65
2021/12/22 05:07:28;;;;;;;13.02;5.13;;;-10.10;99.90;;;;;;5035173;28;20370;-66
2021/12/22 05:09:54;;;;;;;12.25;5.13;;;-10.20;99.90;;;;;;5035292;28;20031;-65
2021/12/22 05:12:20;;;;;;;13.80;5.32;;;-10.20;99.90;;;;;;5034995;28;20028;-66
2021/12/22 05:14:49;;;;;;;13.93;4.50;;;-10.30;99.90;;;;;;5035582;28;20416;-65
2021/12/22 05:17:28;;;;;;;17.98;4.28;;;-10.30;99.90;;;;;;5034878;28;20029;-66
2021/12/22 05:19:54;;;;;;;14.45;4.30;;;-10.30;99.90;;;;;;5034957;28;20021;-66
2021/12/22 05:22:20;;;;;;;13.13;4.30;;;-10.30;99.90;;;;;;5035117;28;20067;-66
2021/12/22 05:24:45;;;;;;;13.77;5.15;;;-10.30;99.90;;;;;;5034618;28;20374;-67
2021/12/22 05:27:13;;;;;;;14.07;4.70;;;-10.30;99.90;;;;;;5034962;28;20034;-65
2021/12/22 05:29:40;;;;;;;11.38;4.75;;;-10.20;99.90;;;;;;5035123;28;20021;-66
2021/12/22 05:32:06;;;;;;;12.38;5.53;;;-10.20;99.90;;;;;;5035211;28;20026;-65
2021/12/22 05:34:33;;;;;;;13.30;5.63;;;-10.20;99.90;;;;;;5034749;28;20025;-65
2021/12/22 05:36:59;;;;;;;12.80;5.03;;;-10.20;99.90;;;;;;5034353;28;20026;-65
2021/12/22 05:39:25;;;;;;;8.93;4.03;;;-10.20;99.90;;;;;;5034613;28;20413;-65
2021/12/22 05:41:51;;;;;;;13.93;4.50;;;-10.20;99.90;;;;;;5034167;28;20474;-66
2021/12/22 05:44:17;;;;;;;13.75;4.60;;;-10.20;99.90;;;;;;5034190;28;20493;-64
2021/12/22 05:46:42;;;;;;;13.57;4.97;;;-10.20;99.90;;;;;;5033580;28;20091;-64
2021/12/22 05:49:08;;;;;;;14.75;5.20;;;-10.30;99.90;;;;;;5035245;28;20106;-65
2021/12/22 05:51:34;;;;;;;14.73;4.85;;;-10.30;99.90;;;;;;5034881;28;20031;-66
2021/12/22 05:54:01;;;;;;;14.85;5.40;;;-10.30;99.90;;;;;;5035755;28;20040;-65
2021/12/22 05:56:29;;;;;;;13.18;5.78;;;-10.30;99.90;;;;;;5034751;28;20026;-65
2021/12/22 05:58:56;;;;;;;14.90;5.95;;;-10.30;99.90;;;;;;5035657;28;20017;-65
2021/12/22 06:01:22;;;;;;;18.50;7.95;;;-10.30;99.90;;;;;;5034766;28;20037;-70
2021/12/22 06:03:48;;;;;;;23.63;9.60;;;-10.30;99.90;;;;;;5034524;28;20017;-68
2021/12/22 06:06:14;;;;;;;16.52;7.57;;;-10.20;99.90;;;;;;5034938;28;20036;-68
2021/12/22 06:08:40;;;;;;;13.95;7.03;;;-10.30;99.90;;;;;;5036337;28;20083;-68
2021/12/22 06:11:05;;;;;;;13.02;5.93;;;-10.30;99.90;;;;;;5034287;28;20025;-68
2021/12/22 06:13:31;;;;;;;9.75;4.93;;;-10.30;99.90;;;;;;5034689;28;20027;-68
2021/12/22 06:15:57;;;;;;;14.23;6.70;;;-10.50;99.90;;;;;;5034927;28;20098;-69
2021/12/22 06:18:23;;;;;;;16.20;8.38;;;-10.60;99.90;;;;;;5035222;28;20025;-68
2021/12/22 06:20:48;;;;;;;13.77;6.07;;;-10.60;99.90;;;;;;5035035;28;20073;-68
2021/12/22 06:23:14;;;;;;;15.07;6.32;;;-10.60;99.90;;;;;;5035240;28;20018;-68
2021/12/22 06:25:40;;;;;;;17.10;6.80;;;-10.60;99.90;;;;;;5034623;28;20104;-68
2021/12/22 06:28:06;;;;;;;26.85;8.88;;;-10.50;99.90;;;;;;5033638;28;20025;-68
2021/12/22 06:30:32;;;;;;;34.03;10.38;;;-10.50;99.90;;;;;;5035044;28;20033;-68
2021/12/22 06:32:58;;;;;;;28.58;10.10;;;-10.50;99.90;;;;;;5034594;28;20025;-68
2021/12/22 06:35:24;;;;;;;37.72;10.93;;;-10.50;99.90;;;;;;5034255;28;20032;-68
2021/12/22 06:37:51;;;;;;;53.60;14.23;;;-10.50;99.90;;;;;;5033080;28;20033;-68
2021/12/22 06:40:18;;;;;;;83.95;23.17;;;-10.40;99.90;;;;;;5034507;28;20026;-68
2021/12/22 06:42:44;;;;;;;126.97;34.05;;;-10.40;99.90;;;;;;5033925;28;20394;-68
2021/12/22 06:45:12;;;;;;;104.40;33.13;;;-10.40;99.90;;;;;;5032326;28;20055;-68
2021/12/22 06:47:39;;;;;;;76.45;23.25;;;-10.40;99.90;;;;;;5033778;28;20033;-68
2021/12/22 06:50:07;;;;;;;67.35;16.63;;;-10.50;99.90;;;;;;5033717;28;20029;-67
2021/12/22 06:52:33;;;;;;;27.40;9.48;;;-10.50;99.90;;;;;;5033706;28;20068;-68
2021/12/22 06:55:00;;;;;;;23.30;8.80;;;-10.60;99.90;;;;;;5032532;28;20107;-68
2021/12/22 06:57:26;;;;;;;15.52;7.28;;;-10.60;99.90;;;;;;5032217;28;20022;-68
2021/12/22 06:59:52;;;;;;;21.05;8.10;;;-10.60;99.90;;;;;;5033538;28;20018;-68
2021/12/22 07:02:17;;;;;;;16.05;6.55;;;-10.60;99.90;;;;;;5033600;28;20034;-67
2021/12/22 07:04:43;;;;;;;17.35;8.30;;;-10.60;99.90;;;;;;5032281;28;20033;-68
2021/12/22 07:07:09;;;;;;;15.93;8.15;;;-10.60;99.90;;;;;;5033899;28;20079;-68
2021/12/22 07:09:36;;;;;;;26.27;12.63;;;-10.50;99.90;;;;;;5033500;28;20025;-68
2021/12/22 07:12:02;;;;;;;30.30;14.43;;;-10.50;99.90;;;;;;5033767;28;20416;-68
2021/12/22 07:14:28;;;;;;;23.92;10.68;;;-10.50;99.90;;;;;;5034058;28;20056;-68
2021/12/22 07:16:55;;;;;;;30.95;7.88;;;-10.50;99.90;;;;;;5033353;28;20393;-68
2021/12/22 07:19:20;;;;;;;17.35;6.30;;;-10.50;99.90;;;;;;5033533;28;20018;-68
2021/12/22 07:21:48;;;;;;;23.05;7.20;;;-10.50;99.90;;;;;;5033406;28;20028;-68
2021/12/22 07:24:14;;;;;;;21.25;6.93;;;-10.60;99.90;;;;;;5031954;28;20496;-68
2021/12/22 07:26:40;;;;;;;19.63;7.47;;;-10.60;99.90;;;;;;5034071;28;20026;-68
2021/12/22 07:29:06;;;;;;;19.80;7.03;;;-10.60;99.90;;;;;;5037143;28;20028;-68
2021/12/22 07:31:32;;;;;;;16.90;6.82;;;-10.60;99.90;;;;;;5035848;28;20072;-68
2021/12/22 07:34:12;;;;;;;15.82;6.68;;;-10.70;99.90;;;;;;5037788;28;20017;-69
2021/12/22 07:37:24;;;;;;;19.98;7.43;;;-10.60;99.90;;;;;;5037246;28;20381;-69
2021/12/22 07:39:49;;;;;;;17.83;7.85;;;-10.60;99.90;;;;;;4983305;28;20031;-70
2021/12/22 07:42:15;;;;;;;13.88;5.88;;;-10.60;99.90;;;;;;5035747;28;20501;-69
2021/12/22 07:44:41;;;;;;;14.52;6.07;;;-10.70;99.90;;;;;;5036947;28;20040;-69
2021/12/22 07:47:07;;;;;;;18.23;7.93;;;-10.70;99.90;;;;;;5037390;28;20049;-70
2021/12/22 07:49:33;;;;;;;25.70;10.30;;;-10.70;99.90;;;;;;5036778;28;20049;-69
2021/12/22 07:51:58;;;;;;;19.58;8.50;;;-10.60;99.90;;;;;;5036523;28;20022;-70
2021/12/22 07:54:24;;;;;;;13.55;7.47;;;-10.70;99.90;;;;;;5036385;28;20044;-69
2021/12/22 07:56:50;;;;;;;22.90;9.00;;;-10.70;99.90;;;;;;5037006;28;20029;-69
2021/12/22 07:59:16;;;;;;;24.83;9.20;;;-10.60;99.90;;;;;;5036752;28;20017;-69
2021/12/22 08:01:41;;;;;;;21.38;8.05;;;-10.60;99.90;;;;;;5036793;28;20021;-69
2021/12/22 08:04:07;;;;;;;21.27;9.32;;;-10.60;99.90;;;;;;5034924;28;20025;-70
2021/12/22 08:06:33;;;;;;;21.95;7.28;;;-10.60;99.90;;;;;;5035110;28;20057;-69
2021/12/22 08:08:59;;;;;;;21.00;7.90;;;-10.60;99.90;;;;;;5036391;28;20026;-70
2021/12/22 08:11:25;;;;;;;16.50;6.65;;;-10.60;99.90;;;;;;5036429;28;20057;-69
2021/12/22 08:13:51;;;;;;;16.85;6.43;;;-10.60;99.90;;;;;;5034943;28;20029;-69
2021/12/22 08:16:17;;;;;;;21.45;6.38;;;-10.60;99.90;;;;;;5036919;28;20067;-70
2021/12/22 08:18:43;;;;;;;14.13;6.30;;;-10.50;99.90;;;;;;5036360;28;20083;-69
2021/12/22 08:21:09;;;;;;;11.45;4.95;;;-10.50;99.90;;;;;;5036800;28;20421;-70
2021/12/22 08:23:34;;;;;;;21.27;7.45;;;-10.50;99.90;;;;;;5036453;28;20100;-69
2021/12/22 08:26:00;;;;;;;18.65;6.97;;;-10.50;99.90;;;;;;5036254;28;20116;-69
2021/12/22 08:28:26;;;;;;;21.92;7.78;;;-10.40;99.90;;;;;;5036108;28;20025;-70
2021/12/22 08:30:52;;;;;;;18.45;7.30;;;-10.40;99.90;;;;;;5035820;28;20551;-70
2021/12/22 08:33:23;;;;;;;19.27;6.70;;;-10.30;99.90;;;;;;5035862;28;20029;-70
2021/12/22 08:38:50;;;;;;;22.88;8.10;;;-10.20;99.90;;;;;;5035591;28;20388;-70
2021/12/22 08:41:25;;;;;;;16.67;7.78;;;-10.20;99.90;;;;;;5036234;28;20029;-70
2021/12/22 08:43:52;;;;;;;18.75;8.10;;;-10.10;99.90;;;;;;5034279;28;20060;-70
2021/12/22 08:46:18;;;;;;;20.90;8.80;;;-10.00;99.90;;;;;;5036378;28;20053;-69
2021/12/22 08:48:44;;;;;;;19.25;8.30;;;-10.00;99.90;;;;;;5035945;28;20386;-70
2021/12/22 08:51:10;;;;;;;19.17;8.70;;;-9.90;99.90;;;;;;5035501;28;20086;-70
2021/12/22 08:53:36;;;;;;;19.63;8.18;;;-9.80;99.90;;;;;;5034218;28;20400;-69
2021/12/22 08:56:01;;;;;;;18.70;7.80;;;-9.80;99.90;;;;;;5035326;28;20496;-70
2021/12/22 08:58:27;;;;;;;19.30;8.40;;;-9.70;99.90;;;;;;5035527;28;20022;-70
2021/12/22 09:00:53;;;;;;;28.40;8.63;;;-9.60;99.90;;;;;;5035411;28;20029;-70
2021/12/22 09:03:19;;;;;;;27.05;10.27;;;-9.60;99.90;;;;;;5035217;28;20026;-70
2021/12/22 09:05:44;;;;;;;27.85;10.07;;;-9.60;99.90;;;;;;5035452;28;20029;-70
2021/12/22 09:08:10;;;;;;;19.42;10.20;;;-9.60;99.90;;;;;;5035114;28;20099;-69
2021/12/22 09:10:36;;;;;;;26.58;10.73;;;-9.60;99.90;;;;;;5035093;28;20044;-69
2021/12/22 09:13:02;;;;;;;18.85;7.78;;;-9.50;99.90;;;;;;5035476;28;20025;-69
2021/12/22 09:15:28;;;;;;;27.67;9.02;;;-9.50;99.90;;;;;;5035430;28;20021;-70
2021/12/22 09:17:54;;;;;;;35.40;9.52;;;-9.40;99.90;;;;;;5034959;28;20087;-69
2021/12/22 09:20:19;;;;;;;26.63;9.27;;;-9.40;99.90;;;;;;5034918;28;20029;-69
2021/12/22 09:22:45;;;;;;;31.38;8.90;;;-9.40;99.90;;;;;;5034686;28;20553;-69
2021/12/22 09:25:11;;;;;;;28.10;9.32;;;-9.40;99.90;;;;;;5035015;28;20031;-69
2021/12/22 09:27:37;;;;;;;31.17;10.13;;;-9.40;99.90;;;;;;5034603;28;20053;-69
2021/12/22 09:30:05;;;;;;;29.25;8.63;;;-9.40;99.90;;;;;;5033111;28;20068;-69
2021/12/22 09:32:31;;;;;;;21.52;8.07;;;-9.40;99.90;;;;;;5033432;28;20032;-69
2021/12/22 09:34:56;;;;;;;23.40;8.32;;;-9.30;99.90;;;;;;5034282;28;20388;-68
2021/12/22 09:37:22;;;;;;;21.30;7.55;;;-9.10;99.90;;;;;;5034268;28;20445;-69
2021/12/22 09:39:49;;;;;;;23.70;9.27;;;-9.00;99.90;;;;;;5032965;28;20017;-69
2021/12/22 09:42:15;;;;;;;21.35;8.00;;;-8.90;99.90;;;;;;5034424;28;20029;-69
2021/12/22 09:44:46;;;;;;;24.17;8.13;;;-8.70;99.90;;;;;;5034247;28;20029;-69
2021/12/22 09:47:13;;;;;;;24.00;9.27;;;-8.60;99.90;;;;;;5034311;28;20389;-69
2021/12/22 09:52:23;;;;;;;27.02;9.63;;;-8.40;99.90;;;;;;5034162;28;20068;-69
2021/12/22 09:54:54;;;;;;;27.33;10.25;;;-8.30;99.90;;;;;;5032751;28;20053;-69
2021/12/22 09:57:21;;;;;;;35.90;11.23;;;-8.20;99.90;;;;;;5032972;28;20017;-69
2021/12/22 09:59:49;;;;;;;24.70;9.25;;;-8.10;99.90;;;;;;5033876;28;20048;-69
2021/12/22 10:02:18;;;;;;;25.15;10.32;;;-8.00;99.90;;;;;;5033803;28;20021;-69
2021/12/22 10:04:44;;;;;;;30.02;10.45;;;-8.00;99.90;;;;;;5034077;28;20030;-69
2021/12/22 10:07:19;;;;;;;25.30;10.00;;;-7.90;99.90;;;;;;5034172;28;20036;-69
2021/12/22 10:09:45;;;;;;;29.55;9.75;;;-7.80;99.90;;;;;;5034244;28;20088;-69
2021/12/22 10:12:20;;;;;;;21.77;8.93;;;-7.70;99.90;;;;;;5033860;28;20021;-69
2021/12/22 10:14:59;;;;;;;27.67;9.63;;;-7.60;99.90;;;;;;5034050;28;20025;-69
2021/12/22 10:17:32;;;;;;;30.27;11.32;;;-7.50;99.90;;;;;;5033575;28;20021;-69
2021/12/22 10:20:04;;;;;;;28.90;12.60;;;-7.40;99.90;;;;;;5033546;28;20028;-69
2021/12/22 10:22:44;;;;;;;32.75;14.55;;;-7.40;99.90;;;;;;5032577;28;20429;-69
2021/12/22 10:25:23;;;;;;;35.45;15.70;;;-7.30;99.90;;;;;;5033848;28;20032;-69
2021/12/22 10:27:59;;;;;;;36.45;17.42;;;-7.20;99.90;;;;;;5032326;28;20033;-69
2021/12/22 10:30:35;;;;;;;31.50;14.23;;;-7.20;99.90;;;;;;5032257;28;20084;-69
2021/12/22 10:33:12;;;;;;;37.17;14.60;;;-7.10;99.90;;;;;;5032180;28;20021;-69
2021/12/22 10:35:40;;;;;;;36.03;14.40;;;-7.00;99.90;;;;;;5033391;28;20029;-69
2021/12/22 10:38:08;;;;;;;35.42;13.45;;;-7.00;99.90;;;;;;5032139;28;20017;-69
2021/12/22 10:40:49;;;;;;;28.00;13.02;;;-6.90;99.90;;;;;;5033686;28;20025;-69
2021/12/22 10:43:16;;;;;;;;;;;-6.80;99.90;;;;;;5032835;28;20432;-69
2021/12/22 10:45:47;;;;;;;31.98;13.18;;;-6.80;99.90;;;;;;5033435;28;20302;-69
2021/12/22 10:51:02;;;;;;;36.20;12.02;;;-6.70;99.90;;;;;;5033632;28;20471;-69
2021/12/22 10:53:28;;;;;;;38.42;11.55;;;-6.60;99.90;;;;;;5033196;28;20041;-69
2021/12/22 10:55:56;;;;;;;23.05;10.73;;;-6.60;99.90;;;;;;5033439;28;20477;-69
2021/12/22 10:58:26;;;;;;;29.77;10.38;;;-6.50;99.90;;;;;;5034917;28;20405;-69
2021/12/22 11:01:08;;;;;;;26.40;8.93;;;-6.40;99.90;;;;;;5036535;28;20075;-69
2021/12/22 11:03:38;;;;;;;26.33;9.98;;;-6.40;99.90;;;;;;5037312;28;20021;-69
2021/12/22 11:06:14;;;;;;;25.63;11.32;;;-6.30;99.90;;;;;;5037426;28;20554;-69
2021/12/22 11:08:41;;;;;;;20.88;8.90;;;-6.20;99.90;;;;;;5037509;28;20025;-69
2021/12/22 11:11:16;;;;;;;20.83;9.60;;;-6.20;99.90;;;;;;5037305;28;20465;-70
2021/12/22 11:13:42;;;;;;;22.23;9.55;;;-6.10;99.90;;;;;;5036941;28;20025;-70
2021/12/22 11:16:13;;;;;;;25.88;10.38;;;-6.10;99.90;;;;;;5036860;28;20100;-67
2021/12/22 11:18:38;;;;;;;26.77;10.15;;;-6.00;99.90;;;;;;5035661;28;20116;-67
2021/12/22 11:21:13;;;;;;;21.60;9.85;;;-5.90;99.90;;;;;;5035563;28;20100;-66
2021/12/22 11:23:39;;;;;;;29.27;11.88;;;-5.90;99.90;;;;;;5037081;28;20140;-66
2021/12/22 11:26:06;;;;;;;27.40;11.15;;;-5.90;99.90;;;;;;5037017;28;20080;-66
2021/12/22 11:28:34;;;;;;;22.85;10.45;;;-5.80;99.90;;;;;;5037029;28;20559;-66
2021/12/22 11:31:02;;;;;;;24.70;10.45;;;-5.80;99.90;;;;;;5036808;28;20148;-66
2021/12/22 11:33:28;;;;;;;29.90;11.38;;;-5.70;99.90;;;;;;5035420;28;20030;-66
2021/12/22 11:35:58;;;;;;;30.45;11.90;;;-5.60;99.90;;;;;;5037032;28;20061;-66
2021/12/22 11:38:26;;;;;;;38.33;12.50;;;-5.50;99.90;;;;;;5035482;28;20028;-66
2021/12/22 11:41:07;;;;;;;31.13;12.27;;;-5.40;99.90;;;;;;5036733;28;20051;-66
2021/12/22 11:43:34;;;;;;;;;;;-5.30;99.90;;;;;;5037105;28;20077;-66
2021/12/22 11:46:02;;;;;;;34.58;12.43;;;-5.20;99.90;;;;;;5035350;28;19905;-66
2021/12/22 11:48:28;;;;;;;27.67;11.77;;;-5.10;99.90;;;;;;5036435;28;20090;-66
2021/12/22 11:50:53;;;;;;;26.20;13.05;;;-5.00;99.90;;;;;;5035124;28;20071;-66
2021/12/22 11:53:19;;;;;;;27.30;11.07;;;-4.90;99.90;;;;;;5036852;28;20041;-66
2021/12/22 11:55:56;;;;;;;16.60;9.25;;;-4.90;99.90;;;;;;5036169;28;20029;-66
2021/12/22 11:58:25;;;;;;;15.63;7.55;;;-4.80;99.90;;;;;;5036354;28;20104;-66
2021/12/22 12:00:54;;;;;;;14.02;8.10;;;-4.70;99.90;;;;;;5036829;28;20097;-66
2021/12/22 12:03:36;;;;;;;19.85;8.23;;;-4.70;99.90;;;;;;5034813;28;20021;-66
2021/12/22 12:06:11;;;;;;;23.02;8.13;;;-4.60;99.90;;;;;;5036114;28;20026;-66
2021/12/22 12:08:45;;;;;;;17.20;7.57;;;-4.50;99.90;;;;;;5034884;28;20374;-66
2021/12/22 12:11:19;;;;;;;15.73;7.35;;;-4.40;99.90;;;;;;5034259;28;20033;-66
2021/12/22 12:22:10;;;;;;;24.42;9.00;;;-4.10;99.90;;;;;;5036583;28;20508;-66
2021/12/22 12:24:54;;;;;;;22.25;9.05;;;-4.10;99.90;;;;;;5034904;28;20075;-66
2021/12/22 12:27:34;;;;;;;26.48;8.75;;;-4.10;99.90;;;;;;5034741;28;20018;-66
2021/12/22 12:30:02;;;;;;;35.90;10.43;;;-4.00;99.90;;;;;;5035893;28;20024;-66
2021/12/22 12:32:40;;;;;;;29.30;10.05;;;-4.00;99.90;;;;;;5034504;28;20083;-66
2021/12/22 12:35:22;;;;;;;34.20;9.15;;;-4.00;99.90;;;;;;5035750;28;20029;-66
2021/12/22 12:38:17;;;;;;;18.17;7.40;;;-3.90;99.90;;;;;;5034425;28;20026;-66
2021/12/22 12:40:59;;;;;;;19.98;8.00;;;-3.80;99.90;;;;;;5035806;28;20030;-66
2021/12/22 12:43:44;;;;;;;18.25;7.05;;;-3.80;99.90;;;;;;5035965;28;20354;-65
2021/12/22 12:46:25;;;;;;;16.83;7.43;;;-3.70;99.90;;;;;;5035599;28;20497;-65
2021/12/22 12:48:55;;;;;;;18.33;7.28;;;-3.60;99.90;;;;;;5035828;28;20033;-66
2021/12/22 12:51:32;;;;;;;32.67;9.65;;;-3.60;99.90;;;;;;5034515;28;20033;-66
2021/12/22 12:54:04;;;;;;;30.50;9.32;;;-3.50;99.90;;;;;;5034100;28;20040;-65
2021/12/22 12:56:36;;;;;;;34.10;9.93;;;-3.50;99.90;;;;;;5033952;28;20035;-66
2021/12/22 12:59:07;;;;;;;32.05;10.63;;;-3.40;99.90;;;;;;5035388;28;20052;-66
2021/12/22 13:01:45;;;;;;;29.83;10.10;;;-3.30;99.90;;;;;;5035339;28;20078;-66
2021/12/22 13:04:31;;;;;;;19.85;7.35;;;-3.20;99.90;;;;;;5034911;28;20048;-66
2021/12/22 13:07:00;;;;;;;21.65;7.05;;;-3.20;99.90;;;;;;5035712;28;20029;-66
2021/12/22 13:09:26;;;;;;;20.27;6.60;;;-3.20;99.90;;;;;;5033919;28;20021;-66
2021/12/22 13:12:10;;;;;;;26.50;8.63;;;-3.10;99.90;;;;;;5034828;28;20064;-66
2021/12/22 13:17:26;;;;;;;25.48;9.93;;;-3.00;99.90;;;;;;5035398;28;20079;-66